sensor_id;sensor_type;location;lat;lon;timestamp;temperature;humidity
39677;DHT22;27789;50.840;4.386;2023-09-08T00:01:33;23.40;99.90
39677;DHT22;27789;50.840;4.386;2023-09-08T00:03:58;23.40;99.90
39677;DHT22;27789;50.840;4.386;2023-09-08T00:06:24;23.40;99.90
39677;DHT22;27789;50.840;4.386;2023-09-08T00:08:49;23.40;99.90
39677;DHT22;27789;50.840;4.386;2023-09-08T00:11:15;23.30;99.90
39677;DHT22;27789;50.840;4.386;2023-09-08T00:13:40;23.30;99.90
39677;DHT22;27789;50.840;4.386;2023-09-08T00:16:06;23.30;99.90
39677;DHT22;27789;50.840;4.386;2023-09-08T00:18:33;23.30;99.90
39677;DHT22;27789;50.840;4.386;2023-09-08T00:20:58;23.30;99.90
39677;DHT22;27789;50.840;4.386;2023-09-08T00:23:24;23.20;99.90
39677;DHT22;27789;50.840;4.386;2023-09-08T00:25:49;23.20;99.90
39677;DHT22;27789;50.840;4.386;2023-09-08T00:28:15;23.20;99.90
39677;DHT22;27789;50.840;4.386;2023-09-08T00:30:40;23.20;99.90
39677;DHT22;27789;50.840;4.386;2023-09-08T00:33:06;23.10;99.90
39677;DHT22;27789;50.840;4.386;2023-09-08T00:35:34;23.10;99.90
39677;DHT22;27789;50.840;4.386;2023-09-08T00:38:00;23.10;99.90
39677;DHT22;27789;50.840;4.386;2023-09-08T00:40:26;23.10;99.90
39677;DHT22;27789;50.840;4.386;2023-09-08T00:42:52;23.00;99.90
39677;DHT22;27789;50.840;4.386;2023-09-08T00:45:17;23.00;99.90
39677;DHT22;27789;50.840;4.386;2023-09-08T00:47:43;23.00;99.90
39677;DHT22;27789;50.840;4.386;2023-09-08T00:50:09;23.00;99.90
39677;DHT22;27789;50.840;4.386;2023-09-08T00:52:34;23.00;99.90
39677;DHT22;27789;50.840;4.386;2023-09-08T00:55:00;23.00;99.90
39677;DHT22;27789;50.840;4.386;2023-09-08T00:57:26;23.00;99.90
39677;DHT22;27789;50.840;4.386;2023-09-08T00:59:52;22.90;99.90
39677;DHT22;27789;50.840;4.386;2023-09-08T01:02:17;22.90;99.90
39677;DHT22;27789;50.840;4.386;2023-09-08T01:04:43;22.90;99.90
39677;DHT22;27789;50.840;4.386;2023-09-08T01:07:09;22.90;99.90
39677;DHT22;27789;50.840;4.386;2023-09-08T01:09:35;22.80;99.90
39677;DHT22;27789;50.840;4.386;2023-09-08T01:12:05;22.80;99.90
39677;DHT22;27789;50.840;4.386;2023-09-08T01:14:31;22.80;99.90
39677;DHT22;27789;50.840;4.386;2023-09-08T01:16:56;22.70;99.90
39677;DHT22;27789;50.840;4.386;2023-09-08T01:19:22;22.70;99.90
39677;DHT22;27789;50.840;4.386;2023-09-08T01:24:37;22.60;99.90
39677;DHT22;27789;50.840;4.386;2023-09-08T01:27:04;22.60;99.90
39677;DHT22;27789;50.840;4.386;2023-09-08T01:29:31;22.60;99.90
39677;DHT22;27789;50.840;4.386;2023-09-08T01:31:57;22.60;99.90
39677;DHT22;27789;50.840;4.386;2023-09-08T01:34:23;22.60;99.90
39677;DHT22;27789;50.840;4.386;2023-09-08T01:36:48;22.60;99.90
39677;DHT22;27789;50.840;4.386;2023-09-08T01:39:14;22.50;99.90
39677;DHT22;27789;50.840;4.386;2023-09-08T01:41:39;22.50;99.90
39677;DHT22;27789;50.840;4.386;2023-09-08T01:44:05;22.50;99.90
39677;DHT22;27789;50.840;4.386;2023-09-08T01:46:33;22.50;99.90
39677;DHT22;27789;50.840;4.386;2023-09-08T01:48:59;22.50;99.90
39677;DHT22;27789;50.840;4.386;2023-09-08T01:51:24;22.50;99.90
39677;DHT22;27789;50.840;4.386;2023-09-08T01:53:50;22.50;99.90
39677;DHT22;27789;50.840;4.386;2023-09-08T01:56:15;22.50;99.90
39677;DHT22;27789;50.840;4.386;2023-09-08T01:58:41;22.40;99.90
39677;DHT22;27789;50.840;4.386;2023-09-08T02:01:06;22.50;99.90
39677;DHT22;27789;50.840;4.386;2023-09-08T02:03:32;22.40;99.90
39677;DHT22;27789;50.840;4.386;2023-09-08T02:05:58;22.40;99.90
39677;DHT22;27789;50.840;4.386;2023-09-08T02:08:23;22.40;99.90
39677;DHT22;27789;50.840;4.386;2023-09-08T02:10:49;22.40;99.90
39677;DHT22;27789;50.840;4.386;2023-09-08T02:13:14;22.40;99.90
39677;DHT22;27789;50.840;4.386;2023-09-08T02:15:40;22.40;99.90
39677;DHT22;27789;50.840;4.386;2023-09-08T02:18:06;22.40;99.90
39677;DHT22;27789;50.840;4.386;2023-09-08T02:20:31;22.40;99.90
39677;DHT22;27789;50.840;4.386;2023-09-08T02:22:57;22.40;99.90
39677;DHT22;27789;50.840;4.386;2023-09-08T02:25:23;22.50;99.90
39677;DHT22;27789;50.840;4.386;2023-09-08T02:27:49;22.40;99.90
39677;DHT22;27789;50.840;4.386;2023-09-08T02:30:14;22.40;99.90
39677;DHT22;27789;50.840;4.386;2023-09-08T02:32:40;22.40;99.90
39677;DHT22;27789;50.840;4.386;2023-09-08T02:35:08;22.50;99.90
39677;DHT22;27789;50.840;4.386;2023-09-08T02:37:33;22.40;99.90
39677;DHT22;27789;50.840;4.386;2023-09-08T02:39:59;22.40;99.90
39677;DHT22;27789;50.840;4.386;2023-09-08T02:42:24;22.40;99.90
39677;DHT22;27789;50.840;4.386;2023-09-08T02:44:50;22.40;99.90
39677;DHT22;27789;50.840;4.386;2023-09-08T02:47:15;22.30;99.90
39677;DHT22;27789;50.840;4.386;2023-09-08T02:49:41;22.40;99.90
39677;DHT22;27789;50.840;4.386;2023-09-08T02:52:06;22.40;99.90
39677;DHT22;27789;50.840;4.386;2023-09-08T02:54:32;22.30;99.90
39677;DHT22;27789;50.840;4.386;2023-09-08T02:56:57;22.30;99.90
39677;DHT22;27789;50.840;4.386;2023-09-08T02:59:23;22.30;99.90
39677;DHT22;27789;50.840;4.386;2023-09-08T03:01:48;22.30;99.90
39677;DHT22;27789;50.840;4.386;2023-09-08T03:04:14;22.30;99.90
39677;DHT22;27789;50.840;4.386;2023-09-08T03:06:39;22.30;99.90
39677;DHT22;27789;50.840;4.386;2023-09-08T03:09:05;22.30;99.90
39677;DHT22;27789;50.840;4.386;2023-09-08T03:11:30;22.20;99.90
39677;DHT22;27789;50.840;4.386;2023-09-08T03:13:56;22.20;99.90
39677;DHT22;27789;50.840;4.386;2023-09-08T03:16:21;22.30;99.90
39677;DHT22;27789;50.840;4.386;2023-09-08T03:18:47;22.20;99.90
39677;DHT22;27789;50.840;4.386;2023-09-08T03:21:13;22.20;99.90
39677;DHT22;27789;50.840;4.386;2023-09-08T03:23:39;22.20;99.90
39677;DHT22;27789;50.840;4.386;2023-09-08T03:26:05;22.10;99.90
39677;DHT22;27789;50.840;4.386;2023-09-08T03:28:32;22.10;99.90
39677;DHT22;27789;50.840;4.386;2023-09-08T03:30:57;22.10;99.90
39677;DHT22;27789;50.840;4.386;2023-09-08T03:33:23;22.00;99.90
39677;DHT22;27789;50.840;4.386;2023-09-08T03:35:48;22.10;99.90
39677;DHT22;27789;50.840;4.386;2023-09-08T03:38:14;22.10;99.90
39677;DHT22;27789;50.840;4.386;2023-09-08T03:40:40;22.00;99.90
39677;DHT22;27789;50.840;4.386;2023-09-08T03:43:05;22.10;99.90
39677;DHT22;27789;50.840;4.386;2023-09-08T03:45:31;22.00;99.90
39677;DHT22;27789;50.840;4.386;2023-09-08T03:47:56;22.00;99.90
39677;DHT22;27789;50.840;4.386;2023-09-08T03:50:21;22.00;99.90
39677;DHT22;27789;50.840;4.386;2023-09-08T03:52:47;22.00;99.90
39677;DHT22;27789;50.840;4.386;2023-09-08T03:55:12;22.00;99.90
39677;DHT22;27789;50.840;4.386;2023-09-08T03:57:38;22.00;99.90
39677;DHT22;27789;50.840;4.386;2023-09-08T04:00:04;22.00;99.90
39677;DHT22;27789;50.840;4.386;2023-09-08T04:02:31;22.00;99.90
39677;DHT22;27789;50.840;4.386;2023-09-08T04:04:57;21.90;99.90
39677;DHT22;27789;50.840;4.386;2023-09-08T04:07:22;21.90;99.90
39677;DHT22;27789;50.840;4.386;2023-09-08T04:09:48;21.90;99.90
39677;DHT22;27789;50.840;4.386;2023-09-08T04:12:13;22.00;99.90
39677;DHT22;27789;50.840;4.386;2023-09-08T04:14:39;21.90;99.90
39677;DHT22;27789;50.840;4.386;2023-09-08T04:17:04;21.90;99.90
39677;DHT22;27789;50.840;4.386;2023-09-08T04:19:30;21.90;99.90
39677;DHT22;27789;50.840;4.386;2023-09-08T04:21:55;21.90;99.90
39677;DHT22;27789;50.840;4.386;2023-09-08T04:24:21;21.90;99.90
39677;DHT22;27789;50.840;4.386;2023-09-08T04:26:46;21.80;99.90
39677;DHT22;27789;50.840;4.386;2023-09-08T04:29:12;21.80;99.90
39677;DHT22;27789;50.840;4.386;2023-09-08T04:31:37;21.80;99.90
39677;DHT22;27789;50.840;4.386;2023-09-08T04:34:03;21.80;99.90
39677;DHT22;27789;50.840;4.386;2023-09-08T04:36:28;21.80;99.90
39677;DHT22;27789;50.840;4.386;2023-09-08T04:38:55;21.80;99.90
39677;DHT22;27789;50.840;4.386;2023-09-08T04:41:21;21.80;99.90
39677;DHT22;27789;50.840;4.386;2023-09-08T04:43:46;21.80;99.90
39677;DHT22;27789;50.840;4.386;2023-09-08T04:46:12;21.80;99.90
39677;DHT22;27789;50.840;4.386;2023-09-08T04:48:37;21.80;99.90
39677;DHT22;27789;50.840;4.386;2023-09-08T04:51:03;21.80;99.90
39677;DHT22;27789;50.840;4.386;2023-09-08T04:53:28;21.80;99.90
39677;DHT22;27789;50.840;4.386;2023-09-08T04:55:54;21.80;99.90
39677;DHT22;27789;50.840;4.386;2023-09-08T04:58:19;21.80;99.90
39677;DHT22;27789;50.840;4.386;2023-09-08T05:00:45;21.80;99.90
39677;DHT22;27789;50.840;4.386;2023-09-08T05:03:11;21.80;99.90
39677;DHT22;27789;50.840;4.386;2023-09-08T05:05:36;21.70;99.90
39677;DHT22;27789;50.840;4.386;2023-09-08T05:08:02;21.80;99.90
39677;DHT22;27789;50.840;4.386;2023-09-08T05:10:27;21.70;99.90
39677;DHT22;27789;50.840;4.386;2023-09-08T05:12:52;21.70;99.90
39677;DHT22;27789;50.840;4.386;2023-09-08T05:15:18;21.70;99.90
39677;DHT22;27789;50.840;4.386;2023-09-08T05:17:46;21.70;99.90
39677;DHT22;27789;50.840;4.386;2023-09-08T05:20:12;21.80;99.90
39677;DHT22;27789;50.840;4.386;2023-09-08T05:22:37;21.80;99.90
39677;DHT22;27789;50.840;4.386;2023-09-08T05:25:03;21.80;99.90
39677;DHT22;27789;50.840;4.386;2023-09-08T05:27:28;21.80;99.90
39677;DHT22;27789;50.840;4.386;2023-09-08T05:29:54;21.80;99.90
39677;DHT22;27789;50.840;4.386;2023-09-08T05:32:19;21.80;99.90
39677;DHT22;27789;50.840;4.386;2023-09-08T05:34:45;21.80;99.90
39677;DHT22;27789;50.840;4.386;2023-09-08T05:37:10;21.80;99.90
39677;DHT22;27789;50.840;4.386;2023-09-08T05:39:36;21.80;99.90
39677;DHT22;27789;50.840;4.386;2023-09-08T05:42:01;21.80;99.90
39677;DHT22;27789;50.840;4.386;2023-09-08T05:44:27;21.80;99.90
39677;DHT22;27789;50.840;4.386;2023-09-08T05:46:52;21.80;99.90
39677;DHT22;27789;50.840;4.386;2023-09-08T05:49:18;21.80;99.90
39677;DHT22;27789;50.840;4.386;2023-09-08T05:51:44;21.90;99.90
39677;DHT22;27789;50.840;4.386;2023-09-08T05:54:09;21.90;99.90
39677;DHT22;27789;50.840;4.386;2023-09-08T05:56:36;21.90;99.90
39677;DHT22;27789;50.840;4.386;2023-09-08T05:59:01;22.00;99.90
39677;DHT22;27789;50.840;4.386;2023-09-08T06:01:27;22.00;99.90
39677;DHT22;27789;50.840;4.386;2023-09-08T06:03:53;22.00;99.90
39677;DHT22;27789;50.840;4.386;2023-09-08T06:06:20;22.10;99.90
39677;DHT22;27789;50.840;4.386;2023-09-08T06:08:45;22.10;99.90
39677;DHT22;27789;50.840;4.386;2023-09-08T06:11:11;22.20;99.90
39677;DHT22;27789;50.840;4.386;2023-09-08T06:13:37;22.20;99.90
39677;DHT22;27789;50.840;4.386;2023-09-08T06:16:03;22.30;99.90
39677;DHT22;27789;50.840;4.386;2023-09-08T06:18:28;22.40;99.90
39677;DHT22;27789;50.840;4.386;2023-09-08T06:20:57;22.50;99.90
39677;DHT22;27789;50.840;4.386;2023-09-08T06:23:22;22.40;99.90
39677;DHT22;27789;50.840;4.386;2023-09-08T06:25:48;22.40;99.90
39677;DHT22;27789;50.840;4.386;2023-09-08T06:28:14;22.50;99.90
39677;DHT22;27789;50.840;4.386;2023-09-08T06:30:39;22.60;99.90
39677;DHT22;27789;50.840;4.386;2023-09-08T06:33:07;22.60;99.90
39677;DHT22;27789;50.840;4.386;2023-09-08T06:35:32;22.70;99.90
39677;DHT22;27789;50.840;4.386;2023-09-08T06:37:59;22.70;99.90
39677;DHT22;27789;50.840;4.386;2023-09-08T06:40:25;22.80;99.90
39677;DHT22;27789;50.840;4.386;2023-09-08T06:42:50;22.80;99.90
39677;DHT22;27789;50.840;4.386;2023-09-08T06:45:16;22.90;99.90
39677;DHT22;27789;50.840;4.386;2023-09-08T06:47:42;23.00;99.90
39677;DHT22;27789;50.840;4.386;2023-09-08T06:50:07;23.00;99.90
39677;DHT22;27789;50.840;4.386;2023-09-08T06:52:33;23.10;99.90
39677;DHT22;27789;50.840;4.386;2023-09-08T06:54:58;23.10;99.90
39677;DHT22;27789;50.840;4.386;2023-09-08T06:57:24;23.10;99.90
39677;DHT22;27789;50.840;4.386;2023-09-08T06:59:49;23.20;99.90
39677;DHT22;27789;50.840;4.386;2023-09-08T07:02:15;23.30;99.90
39677;DHT22;27789;50.840;4.386;2023-09-08T07:04:40;23.40;99.90
39677;DHT22;27789;50.840;4.386;2023-09-08T07:07:05;23.40;99.90
39677;DHT22;27789;50.840;4.386;2023-09-08T07:09:35;23.50;99.90
39677;DHT22;27789;50.840;4.386;2023-09-08T07:12:05;23.50;99.90
39677;DHT22;27789;50.840;4.386;2023-09-08T07:14:31;23.60;99.90
39677;DHT22;27789;50.840;4.386;2023-09-08T07:16:57;23.70;99.90
39677;DHT22;27789;50.840;4.386;2023-09-08T07:19:23;23.70;99.90
39677;DHT22;27789;50.840;4.386;2023-09-08T07:21:48;23.80;99.90
39677;DHT22;27789;50.840;4.386;2023-09-08T07:24:14;23.80;99.90
39677;DHT22;27789;50.840;4.386;2023-09-08T07:26:39;23.80;99.90
39677;DHT22;27789;50.840;4.386;2023-09-08T07:29:04;23.90;99.90
39677;DHT22;27789;50.840;4.386;2023-09-08T07:31:30;23.90;99.90
39677;DHT22;27789;50.840;4.386;2023-09-08T07:33:56;24.00;99.90
39677;DHT22;27789;50.840;4.386;2023-09-08T07:36:21;24.00;99.90
39677;DHT22;27789;50.840;4.386;2023-09-08T07:38:47;24.10;99.90
39677;DHT22;27789;50.840;4.386;2023-09-08T07:41:12;24.20;99.90
39677;DHT22;27789;50.840;4.386;2023-09-08T07:43:38;24.10;99.90
39677;DHT22;27789;50.840;4.386;2023-09-08T07:46:08;24.20;99.90
39677;DHT22;27789;50.840;4.386;2023-09-08T07:48:34;24.20;99.90
39677;DHT22;27789;50.840;4.386;2023-09-08T07:50:59;24.20;99.90
39677;DHT22;27789;50.840;4.386;2023-09-08T07:53:25;24.30;99.90
39677;DHT22;27789;50.840;4.386;2023-09-08T07:55:51;24.30;99.90
39677;DHT22;27789;50.840;4.386;2023-09-08T07:58:17;24.30;99.90
39677;DHT22;27789;50.840;4.386;2023-09-08T08:00:42;24.40;99.90
39677;DHT22;27789;50.840;4.386;2023-09-08T08:03:08;24.40;99.90
39677;DHT22;27789;50.840;4.386;2023-09-08T08:05:33;24.40;99.90
39677;DHT22;27789;50.840;4.386;2023-09-08T08:07:59;24.40;99.90
39677;DHT22;27789;50.840;4.386;2023-09-08T08:10:25;24.40;99.90
39677;DHT22;27789;50.840;4.386;2023-09-08T08:12:50;24.50;99.90
39677;DHT22;27789;50.840;4.386;2023-09-08T08:15:16;24.70;99.90
39677;DHT22;27789;50.840;4.386;2023-09-08T08:17:41;24.80;99.90
39677;DHT22;27789;50.840;4.386;2023-09-08T08:20:07;24.80;99.90
39677;DHT22;27789;50.840;4.386;2023-09-08T08:22:35;24.90;99.90
39677;DHT22;27789;50.840;4.386;2023-09-08T08:25:01;25.00;99.90
39677;DHT22;27789;50.840;4.386;2023-09-08T08:27:27;25.00;99.90
39677;DHT22;27789;50.840;4.386;2023-09-08T08:29:52;25.00;99.90
39677;DHT22;27789;50.840;4.386;2023-09-08T08:32:18;25.00;99.90
39677;DHT22;27789;50.840;4.386;2023-09-08T08:34:43;25.10;99.90
39677;DHT22;27789;50.840;4.386;2023-09-08T08:37:10;25.20;99.90
39677;DHT22;27789;50.840;4.386;2023-09-08T08:39:36;25.40;99.90
39677;DHT22;27789;50.840;4.386;2023-09-08T08:42:09;25.40;99.90
39677;DHT22;27789;50.840;4.386;2023-09-08T08:44:34;25.50;99.90
39677;DHT22;27789;50.840;4.386;2023-09-08T08:47:00;25.50;99.90
39677;DHT22;27789;50.840;4.386;2023-09-08T08:49:27;25.60;99.90
39677;DHT22;27789;50.840;4.386;2023-09-08T08:51:53;25.70;99.90
39677;DHT22;27789;50.840;4.386;2023-09-08T08:54:19;25.80;99.90
39677;DHT22;27789;50.840;4.386;2023-09-08T08:56:45;25.80;99.90
39677;DHT22;27789;50.840;4.386;2023-09-08T08:59:11;25.90;99.90
39677;DHT22;27789;50.840;4.386;2023-09-08T09:01:36;26.00;99.90
39677;DHT22;27789;50.840;4.386;2023-09-08T09:04:04;26.10;99.90
39677;DHT22;27789;50.840;4.386;2023-09-08T09:06:30;26.20;99.90
39677;DHT22;27789;50.840;4.386;2023-09-08T09:08:56;26.30;99.90
39677;DHT22;27789;50.840;4.386;2023-09-08T09:11:22;26.30;99.90
39677;DHT22;27789;50.840;4.386;2023-09-08T09:13:48;26.40;99.90
39677;DHT22;27789;50.840;4.386;2023-09-08T09:16:13;26.40;99.90
39677;DHT22;27789;50.840;4.386;2023-09-08T09:18:58;26.50;99.90
39677;DHT22;27789;50.840;4.386;2023-09-08T09:21:24;26.50;99.90
39677;DHT22;27789;50.840;4.386;2023-09-08T09:23:49;26.60;99.90
39677;DHT22;27789;50.840;4.386;2023-09-08T09:26:24;26.70;99.90
39677;DHT22;27789;50.840;4.386;2023-09-08T09:28:50;26.70;99.90
39677;DHT22;27789;50.840;4.386;2023-09-08T09:31:17;26.70;99.90
39677;DHT22;27789;50.840;4.386;2023-09-08T09:33:43;26.80;99.90
39677;DHT22;27789;50.840;4.386;2023-09-08T09:36:09;26.90;99.90
39677;DHT22;27789;50.840;4.386;2023-09-08T09:38:34;27.00;99.90
39677;DHT22;27789;50.840;4.386;2023-09-08T09:41:02;27.20;99.90
39677;DHT22;27789;50.840;4.386;2023-09-08T09:43:28;27.30;99.90
39677;DHT22;27789;50.840;4.386;2023-09-08T09:45:53;27.40;99.90
39677;DHT22;27789;50.840;4.386;2023-09-08T09:48:20;27.50;99.90
39677;DHT22;27789;50.840;4.386;2023-09-08T09:50:46;27.60;99.90
39677;DHT22;27789;50.840;4.386;2023-09-08T09:53:13;27.80;99.90
39677;DHT22;27789;50.840;4.386;2023-09-08T09:55:39;27.90;99.90
39677;DHT22;27789;50.840;4.386;2023-09-08T09:58:05;28.10;99.90
39677;DHT22;27789;50.840;4.386;2023-09-08T10:00:31;28.20;99.90
39677;DHT22;27789;50.840;4.386;2023-09-08T10:02:58;28.40;99.90
39677;DHT22;27789;50.840;4.386;2023-09-08T10:05:24;28.60;99.90
39677;DHT22;27789;50.840;4.386;2023-09-08T10:07:50;28.70;99.90
39677;DHT22;27789;50.840;4.386;2023-09-08T10:10:16;29.00;99.90
39677;DHT22;27789;50.840;4.386;2023-09-08T10:12:43;29.20;99.90
39677;DHT22;27789;50.840;4.386;2023-09-08T10:15:09;29.30;99.90
39677;DHT22;27789;50.840;4.386;2023-09-08T10:17:35;29.50;99.90
39677;DHT22;27789;50.840;4.386;2023-09-08T10:20:01;29.70;99.90
39677;DHT22;27789;50.840;4.386;2023-09-08T10:22:34;29.70;99.90
39677;DHT22;27789;50.840;4.386;2023-09-08T10:25:01;29.80;99.90
39677;DHT22;27789;50.840;4.386;2023-09-08T10:27:28;30.00;99.90
39677;DHT22;27789;50.840;4.386;2023-09-08T10:29:54;30.30;99.90
39677;DHT22;27789;50.840;4.386;2023-09-08T10:32:20;30.30;99.90
39677;DHT22;27789;50.840;4.386;2023-09-08T10:34:47;30.40;99.90
39677;DHT22;27789;50.840;4.386;2023-09-08T10:37:20;30.60;99.90
39677;DHT22;27789;50.840;4.386;2023-09-08T10:39:46;31.70;99.60
39677;DHT22;27789;50.840;4.386;2023-09-08T10:47:12;35.10;96.60
39677;DHT22;27789;50.840;4.386;2023-09-08T10:49:38;35.50;94.90
39677;DHT22;27789;50.840;4.386;2023-09-08T10:52:10;36.00;94.80
39677;DHT22;27789;50.840;4.386;2023-09-08T10:54:42;36.50;94.20
39677;DHT22;27789;50.840;4.386;2023-09-08T10:57:15;36.90;94.30
39677;DHT22;27789;50.840;4.386;2023-09-08T10:59:53;37.20;93.50
39677;DHT22;27789;50.840;4.386;2023-09-08T11:02:38;37.40;93.80
39677;DHT22;27789;50.840;4.386;2023-09-08T11:05:07;37.60;93.30
39677;DHT22;27789;50.840;4.386;2023-09-08T11:07:37;38.10;93.60
39677;DHT22;27789;50.840;4.386;2023-09-08T11:10:03;38.60;93.50
39677;DHT22;27789;50.840;4.386;2023-09-08T11:12:29;38.80;92.60
39677;DHT22;27789;50.840;4.386;2023-09-08T11:14:55;38.90;92.20
39677;DHT22;27789;50.840;4.386;2023-09-08T11:17:20;38.70;91.70
39677;DHT22;27789;50.840;4.386;2023-09-08T11:19:46;38.50;92.00
39677;DHT22;27789;50.840;4.386;2023-09-08T11:22:13;38.70;91.90
39677;DHT22;27789;50.840;4.386;2023-09-08T11:24:38;39.20;91.80
39677;DHT22;27789;50.840;4.386;2023-09-08T11:27:04;39.50;91.70
39677;DHT22;27789;50.840;4.386;2023-09-08T11:29:30;39.50;91.70
39677;DHT22;27789;50.840;4.386;2023-09-08T11:31:56;39.70;91.30
39677;DHT22;27789;50.840;4.386;2023-09-08T11:34:21;39.60;91.00
39677;DHT22;27789;50.840;4.386;2023-09-08T11:36:47;39.40;91.20
39677;DHT22;27789;50.840;4.386;2023-09-08T11:39:13;39.60;91.20
39677;DHT22;27789;50.840;4.386;2023-09-08T11:41:39;39.90;91.30
39677;DHT22;27789;50.840;4.386;2023-09-08T11:44:05;40.10;90.90
39677;DHT22;27789;50.840;4.386;2023-09-08T11:46:30;40.20;90.70
39677;DHT22;27789;50.840;4.386;2023-09-08T11:48:56;40.50;90.90
39677;DHT22;27789;50.840;4.386;2023-09-08T11:51:25;40.90;90.50
39677;DHT22;27789;50.840;4.386;2023-09-08T11:53:51;40.90;90.90
39677;DHT22;27789;50.840;4.386;2023-09-08T11:56:17;41.10;90.90
39677;DHT22;27789;50.840;4.386;2023-09-08T11:58:42;40.70;90.70
39677;DHT22;27789;50.840;4.386;2023-09-08T12:01:08;40.00;91.40
39677;DHT22;27789;50.840;4.386;2023-09-08T12:03:35;40.10;91.30
39677;DHT22;27789;50.840;4.386;2023-09-08T12:06:15;40.20;91.30
39677;DHT22;27789;50.840;4.386;2023-09-08T12:08:41;40.70;91.40
39677;DHT22;27789;50.840;4.386;2023-09-08T12:11:06;40.10;90.60
39677;DHT22;27789;50.840;4.386;2023-09-08T12:13:34;39.80;91.20
39677;DHT22;27789;50.840;4.386;2023-09-08T12:15:59;40.20;91.40
39677;DHT22;27789;50.840;4.386;2023-09-08T12:18:38;40.50;91.30
39677;DHT22;27789;50.840;4.386;2023-09-08T12:21:04;40.70;90.80
39677;DHT22;27789;50.840;4.386;2023-09-08T12:23:30;40.50;91.10
39677;DHT22;27789;50.840;4.386;2023-09-08T12:25:56;40.80;90.80
39677;DHT22;27789;50.840;4.386;2023-09-08T12:28:22;41.30;91.00
39677;DHT22;27789;50.840;4.386;2023-09-08T12:30:50;41.70;91.10
39677;DHT22;27789;50.840;4.386;2023-09-08T12:33:16;42.00;90.90
39677;DHT22;27789;50.840;4.386;2023-09-08T12:35:45;42.20;91.10
39677;DHT22;27789;50.840;4.386;2023-09-08T12:38:11;42.30;90.60
39677;DHT22;27789;50.840;4.386;2023-09-08T12:40:38;42.30;90.10
39677;DHT22;27789;50.840;4.386;2023-09-08T12:43:04;42.40;90.00
39677;DHT22;27789;50.840;4.386;2023-09-08T12:45:30;42.30;90.10
39677;DHT22;27789;50.840;4.386;2023-09-08T12:47:57;42.40;90.20
39677;DHT22;27789;50.840;4.386;2023-09-08T12:50:24;42.40;90.00
39677;DHT22;27789;50.840;4.386;2023-09-08T12:52:49;42.20;90.00
39677;DHT22;27789;50.840;4.386;2023-09-08T12:55:15;42.00;90.00
39677;DHT22;27789;50.840;4.386;2023-09-08T12:57:40;41.70;90.40
39677;DHT22;27789;50.840;4.386;2023-09-08T13:00:06;41.90;90.30
39677;DHT22;27789;50.840;4.386;2023-09-08T13:02:32;42.10;90.30
39677;DHT22;27789;50.840;4.386;2023-09-08T13:04:58;42.20;90.40
39677;DHT22;27789;50.840;4.386;2023-09-08T13:07:24;42.30;90.10
39677;DHT22;27789;50.840;4.386;2023-09-08T13:09:49;42.00;89.80
39677;DHT22;27789;50.840;4.386;2023-09-08T13:12:15;42.00;90.00
39677;DHT22;27789;50.840;4.386;2023-09-08T13:14:41;42.00;90.20
39677;DHT22;27789;50.840;4.386;2023-09-08T13:17:08;42.00;90.20
39677;DHT22;27789;50.840;4.386;2023-09-08T13:19:34;41.80;90.30
39677;DHT22;27789;50.840;4.386;2023-09-08T13:21:59;41.50;90.50
39677;DHT22;27789;50.840;4.386;2023-09-08T13:24:25;40.90;90.60
39677;DHT22;27789;50.840;4.386;2023-09-08T13:26:50;40.60;90.90
39677;DHT22;27789;50.840;4.386;2023-09-08T13:29:16;39.80;91.10
39677;DHT22;27789;50.840;4.386;2023-09-08T13:31:42;39.50;91.30
39677;DHT22;27789;50.840;4.386;2023-09-08T13:34:07;39.30;92.20
39677;DHT22;27789;50.840;4.386;2023-09-08T13:36:33;39.20;91.70
39677;DHT22;27789;50.840;4.386;2023-09-08T13:38:59;39.40;91.70
39677;DHT22;27789;50.840;4.386;2023-09-08T13:41:29;39.40;92.10
39677;DHT22;27789;50.840;4.386;2023-09-08T13:44:08;39.50;91.70
39677;DHT22;27789;50.840;4.386;2023-09-08T13:46:33;39.60;91.50
39677;DHT22;27789;50.840;4.386;2023-09-08T13:48:59;39.20;91.80
39677;DHT22;27789;50.840;4.386;2023-09-08T13:51:24;38.50;92.30
39677;DHT22;27789;50.840;4.386;2023-09-08T13:53:50;37.70;92.60
39677;DHT22;27789;50.840;4.386;2023-09-08T13:56:15;37.20;93.30
39677;DHT22;27789;50.840;4.386;2023-09-08T13:58:41;36.90;93.40
39677;DHT22;27789;50.840;4.386;2023-09-08T14:01:10;36.70;94.00
39677;DHT22;27789;50.840;4.386;2023-09-08T14:03:36;36.40;93.50
39677;DHT22;27789;50.840;4.386;2023-09-08T14:06:01;36.20;93.50
39677;DHT22;27789;50.840;4.386;2023-09-08T14:08:27;36.10;94.20
39677;DHT22;27789;50.840;4.386;2023-09-08T14:10:52;35.80;93.90
39677;DHT22;27789;50.840;4.386;2023-09-08T14:13:18;35.70;93.90
39677;DHT22;27789;50.840;4.386;2023-09-08T14:15:44;35.40;94.10
39677;DHT22;27789;50.840;4.386;2023-09-08T14:18:10;35.20;94.40
39677;DHT22;27789;50.840;4.386;2023-09-08T14:20:36;35.10;95.00
39677;DHT22;27789;50.840;4.386;2023-09-08T14:23:02;35.00;95.50
39677;DHT22;27789;50.840;4.386;2023-09-08T14:25:27;34.90;95.20
39677;DHT22;27789;50.840;4.386;2023-09-08T14:27:53;34.80;95.10
39677;DHT22;27789;50.840;4.386;2023-09-08T14:30:18;34.70;94.70
39677;DHT22;27789;50.840;4.386;2023-09-08T14:32:44;34.70;95.20
39677;DHT22;27789;50.840;4.386;2023-09-08T14:35:09;34.60;95.00
39677;DHT22;27789;50.840;4.386;2023-09-08T14:37:35;34.60;95.20
39677;DHT22;27789;50.840;4.386;2023-09-08T14:40:00;34.30;95.50
39677;DHT22;27789;50.840;4.386;2023-09-08T14:42:26;34.30;95.70
39677;DHT22;27789;50.840;4.386;2023-09-08T14:44:51;34.20;95.80
39677;DHT22;27789;50.840;4.386;2023-09-08T14:47:17;34.30;95.90
39677;DHT22;27789;50.840;4.386;2023-09-08T14:49:43;34.20;95.90
39677;DHT22;27789;50.840;4.386;2023-09-08T14:52:08;34.10;96.00
39677;DHT22;27789;50.840;4.386;2023-09-08T14:54:34;34.00;96.00
39677;DHT22;27789;50.840;4.386;2023-09-08T14:56:59;34.00;96.20
39677;DHT22;27789;50.840;4.386;2023-09-08T14:59:25;34.00;96.00
39677;DHT22;27789;50.840;4.386;2023-09-08T15:01:51;33.90;96.00
39677;DHT22;27789;50.840;4.386;2023-09-08T15:04:19;33.70;96.30
39677;DHT22;27789;50.840;4.386;2023-09-08T15:06:44;33.80;96.30
39677;DHT22;27789;50.840;4.386;2023-09-08T15:09:10;33.80;96.20
39677;DHT22;27789;50.840;4.386;2023-09-08T15:11:36;33.80;96.30
39677;DHT22;27789;50.840;4.386;2023-09-08T15:14:03;33.80;96.60
39677;DHT22;27789;50.840;4.386;2023-09-08T15:16:29;34.10;96.90
39677;DHT22;27789;50.840;4.386;2023-09-08T15:18:54;34.20;96.10
39677;DHT22;27789;50.840;4.386;2023-09-08T15:21:20;34.10;96.20
39677;DHT22;27789;50.840;4.386;2023-09-08T15:23:51;34.20;96.00
39677;DHT22;27789;50.840;4.386;2023-09-08T15:26:16;34.40;96.50
39677;DHT22;27789;50.840;4.386;2023-09-08T15:28:42;34.30;96.50
39677;DHT22;27789;50.840;4.386;2023-09-08T15:31:08;34.20;96.10